Oakdale, CT (06370)

1:35 AM EST on January 27, 2015 (GMT -0500)
Montville High School | Change Station
CLOSE
Current Station
Personal Weather Station
Location: Montville, CT
Elevation: 381 ft
Nearby Weather Stations
Active Advisory: Blizzard Warning Active Notice: Public Information Statement

Elev 381 ft 41.46 °N, 72.16 °W | Updated 10 minutes ago

Snow
Snow
19.4 °F
Feels Like 6 °F
N
13.0
Wind Variable Wind from NE
Gusts 37.0 mph

Today
High -- | Low -- °F
--% Chance of Precip.
Yesterday
High -- | Low -- °F
Precip. -- in
7:05 AM 4:58 PM
Waxing Crescent, 51% visible
Pressure 29.57 in
Visibility 0.5 miles
Clouds
Windchill 6 °F
Dew Point 18 °F
Humidity 93%
Rainfall 0.00 in
Snow Depth Not available.
UV Not available.
Pollen .10 out of 12
Air Quality Not available.
Flu Activity Not available.
SPECI KGON 270621Z AUTO 01018G28KT 1/2SM R05/3500V5000FT FZFG VV006 M07/M08 A2957 RMK AO2 T10671078 PWINO FZRANO $

More Conditions Fewer Conditions

Pressure 29.57 in
Visibility 0.5 miles
Clouds
Windchill 6 °F
Dew Point 18 °F
Humidity 93%
Rainfall 0.00 in
Snow Depth Not available.
UV Not available.
Pollen .10 out of 12
Air Quality Not available.
Flu Activity Not available.
SPECI KGON 270621Z AUTO 01018G28KT 1/2SM R05/3500V5000FT FZFG VV006 M07/M08 A2957 RMK AO2 T10671078 PWINO FZRANO $

More Conditions Fewer Conditions

10-Day Weather Forecast

Almanac

Astronomy

Jan. 27, 2015 Rise Set
Actual Time
Civil Twilight
Nautical Twilight
Astronomical Twilight
Moon
Length of Visible Light
Length of Day
Tomorrow will be .
, % of the Moon is Illuminated

Today's Extremes

State Highs State Lows

Community

WunderPhotos

Upload Photos

1,790,542 photos uploaded!

WunderBlogs® & News

Nearby

Air Quality

  Air Quality AQ Index Pollutant
Not available.

Snow Depth

Station Depth Elevation

Earthquake Activity

City Distance Mag. Time & Date
Minimum magnitude displayed is 2.5.

Coastal Water Temperatures

Place Temperature

Nearby Weather Stations